sensor_id;sensor_type;location;lat;lon;timestamp;pressure;altitude;pressure_sealevel;temperature;humidity
76611;BME280;65503;48.534;9.062;2023-02-04T00:00:00;98258.13;;;6.76;79.99
76611;BME280;65503;48.534;9.062;2023-02-04T00:02:27;98260.09;;;6.74;79.48
76611;BME280;65503;48.534;9.062;2023-02-04T00:04:54;98259.28;;;6.74;80.43
76611;BME280;65503;48.534;9.062;2023-02-04T00:07:20;98253.66;;;6.85;79.43
76611;BME280;65503;48.534;9.062;2023-02-04T00:09:47;98249.63;;;6.74;79.74
76611;BME280;65503;48.534;9.062;2023-02-04T00:12:15;98258.97;;;7.22;78.31
76611;BME280;65503;48.534;9.062;2023-02-04T00:14:42;98264.69;;;6.72;80.03
76611;BME280;65503;48.534;9.062;2023-02-04T00:17:08;98267.09;;;6.82;80.05
76611;BME280;65503;48.534;9.062;2023-02-04T00:19:37;98266.06;;;6.29;81.63
76611;BME280;65503;48.534;9.062;2023-02-04T00:22:04;98270.34;;;6.22;82.74
76611;BME280;65503;48.534;9.062;2023-02-04T00:24:33;98270.78;;;6.34;82.47
76611;BME280;65503;48.534;9.062;2023-02-04T00:27:01;98268.72;;;6.83;80.89
76611;BME280;65503;48.534;9.062;2023-02-04T00:29:27;98273.91;;;6.29;82.45
76611;BME280;65503;48.534;9.062;2023-02-04T00:31:54;98274.59;;;6.85;80.43
76611;BME280;65503;48.534;9.062;2023-02-04T00:34:21;98264.28;;;6.60;80.90
76611;BME280;65503;48.534;9.062;2023-02-04T00:36:48;98259.41;;;6.18;83.16
76611;BME280;65503;48.534;9.062;2023-02-04T00:39:15;98249.34;;;6.38;82.84
76611;BME280;65503;48.534;9.062;2023-02-04T00:41:41;98246.31;;;6.57;81.72
76611;BME280;65503;48.534;9.062;2023-02-04T00:44:08;98248.63;;;6.52;81.87
76611;BME280;65503;48.534;9.062;2023-02-04T00:46:34;98250.88;;;6.55;81.95
76611;BME280;65503;48.534;9.062;2023-02-04T00:49:01;98249.19;;;6.93;80.87
76611;BME280;65503;48.534;9.062;2023-02-04T00:51:27;98250.44;;;7.20;79.49
76611;BME280;65503;48.534;9.062;2023-02-04T00:53:54;98249.88;;;7.33;78.86
76611;BME280;65503;48.534;9.062;2023-02-04T00:56:20;98261.94;;;7.57;78.10
76611;BME280;65503;48.534;9.062;2023-02-04T00:58:47;98254.19;;;7.03;79.48
76611;BME280;65503;48.534;9.062;2023-02-04T01:01:13;98240.09;;;7.27;79.63
76611;BME280;65503;48.534;9.062;2023-02-04T01:03:40;98254.41;;;6.71;81.82
76611;BME280;65503;48.534;9.062;2023-02-04T01:06:06;98254.06;;;7.19;80.53
76611;BME280;65503;48.534;9.062;2023-02-04T01:08:33;98256.84;;;7.18;80.10
76611;BME280;65503;48.534;9.062;2023-02-04T01:10:59;98255.34;;;7.23;80.14
76611;BME280;65503;48.534;9.062;2023-02-04T01:13:26;98260.59;;;7.23;80.09
76611;BME280;65503;48.534;9.062;2023-02-04T01:15:52;98253.97;;;7.65;78.77
76611;BME280;65503;48.534;9.062;2023-02-04T01:18:19;98250.38;;;7.66;78.00
76611;BME280;65503;48.534;9.062;2023-02-04T01:20:45;98257.44;;;7.05;80.89
76611;BME280;65503;48.534;9.062;2023-02-04T01:23:12;98277.03;;;6.86;82.00
76611;BME280;65503;48.534;9.062;2023-02-04T01:25:38;98281.88;;;7.20;80.94
76611;BME280;65503;48.534;9.062;2023-02-04T01:28:05;98285.63;;;7.78;78.59
76611;BME280;65503;48.534;9.062;2023-02-04T01:30:31;98268.34;;;7.31;79.94
76611;BME280;65503;48.534;9.062;2023-02-04T01:32:58;98268.72;;;6.83;82.00
76611;BME280;65503;48.534;9.062;2023-02-04T01:35:25;98257.84;;;6.40;83.81
76611;BME280;65503;48.534;9.062;2023-02-04T01:37:51;98262.28;;;6.62;82.97
76611;BME280;65503;48.534;9.062;2023-02-04T01:40:18;98260.59;;;6.47;83.80
76611;BME280;65503;48.534;9.062;2023-02-04T01:42:44;98266.84;;;6.69;83.33
76611;BME280;65503;48.534;9.062;2023-02-04T01:45:11;98270.47;;;6.90;82.51
76611;BME280;65503;48.534;9.062;2023-02-04T01:47:38;98272.34;;;7.04;81.61
76611;BME280;65503;48.534;9.062;2023-02-04T01:50:06;98276.06;;;7.10;81.26
76611;BME280;65503;48.534;9.062;2023-02-04T01:52:36;98269.19;;;7.09;81.94
76611;BME280;65503;48.534;9.062;2023-02-04T01:55:03;98279.19;;;7.28;80.43
76611;BME280;65503;48.534;9.062;2023-02-04T01:57:32;98269.88;;;7.26;81.10
76611;BME280;65503;48.534;9.062;2023-02-04T01:59:59;98282.00;;;7.79;78.83
76611;BME280;65503;48.534;9.062;2023-02-04T02:02:45;98276.22;;;7.69;79.11
76611;BME280;65503;48.534;9.062;2023-02-04T02:05:25;98278.19;;;7.67;79.48
76611;BME280;65503;48.534;9.062;2023-02-04T02:07:54;98289.44;;;7.90;77.98
76611;BME280;65503;48.534;9.062;2023-02-04T02:10:22;98284.34;;;7.74;79.06
76611;BME280;65503;48.534;9.062;2023-02-04T02:12:49;98279.56;;;7.92;78.19
76611;BME280;65503;48.534;9.062;2023-02-04T02:15:17;98273.25;;;7.34;80.41
76611;BME280;65503;48.534;9.062;2023-02-04T02:17:44;98274.66;;;7.22;81.24
76611;BME280;65503;48.534;9.062;2023-02-04T02:20:14;98271.09;;;7.38;80.90
76611;BME280;65503;48.534;9.062;2023-02-04T02:25:13;98286.25;;;7.42;80.55
76611;BME280;65503;48.534;9.062;2023-02-04T02:27:40;98288.72;;;7.96;78.56
76611;BME280;65503;48.534;9.062;2023-02-04T02:30:08;98275.16;;;8.07;78.09
76611;BME280;65503;48.534;9.062;2023-02-04T02:32:36;98279.13;;;8.03;78.61
76611;BME280;65503;48.534;9.062;2023-02-04T02:35:04;98280.78;;;8.34;77.17
76611;BME280;65503;48.534;9.062;2023-02-04T02:37:31;98291.44;;;8.47;76.73
76611;BME280;65503;48.534;9.062;2023-02-04T02:39:58;98281.09;;;8.60;76.15
76611;BME280;65503;48.534;9.062;2023-02-04T02:42:24;98287.97;;;8.61;75.91
76611;BME280;65503;48.534;9.062;2023-02-04T02:44:51;98294.19;;;8.75;75.70
76611;BME280;65503;48.534;9.062;2023-02-04T02:47:20;98299.94;;;8.85;75.26
76611;BME280;65503;48.534;9.062;2023-02-04T02:49:49;98300.84;;;8.92;75.02
76611;BME280;65503;48.534;9.062;2023-02-04T02:52:16;98296.47;;;8.99;74.83
76611;BME280;65503;48.534;9.062;2023-02-04T02:54:43;98304.59;;;9.04;74.63
76611;BME280;65503;48.534;9.062;2023-02-04T02:57:15;98314.94;;;9.05;74.33
76611;BME280;65503;48.534;9.062;2023-02-04T02:59:42;98325.44;;;9.05;74.00
76611;BME280;65503;48.534;9.062;2023-02-04T03:02:10;98328.41;;;9.02;74.38
76611;BME280;65503;48.534;9.062;2023-02-04T03:04:42;98323.97;;;9.03;74.40
76611;BME280;65503;48.534;9.062;2023-02-04T03:07:10;98321.41;;;9.09;73.78
76611;BME280;65503;48.534;9.062;2023-02-04T03:09:37;98317.16;;;9.08;74.19
76611;BME280;65503;48.534;9.062;2023-02-04T03:12:05;98317.16;;;9.08;73.61
76611;BME280;65503;48.534;9.062;2023-02-04T03:14:32;98317.56;;;9.05;73.65
76611;BME280;65503;48.534;9.062;2023-02-04T03:17:01;98323.78;;;9.04;74.13
76611;BME280;65503;48.534;9.062;2023-02-04T03:19:29;98332.03;;;9.01;73.95
76611;BME280;65503;48.534;9.062;2023-02-04T03:21:56;98328.78;;;8.99;74.20
76611;BME280;65503;48.534;9.062;2023-02-04T03:24:23;98341.63;;;8.94;74.12
76611;BME280;65503;48.534;9.062;2023-02-04T03:26:50;98340.38;;;8.90;74.35
76611;BME280;65503;48.534;9.062;2023-02-04T03:29:17;98338.75;;;8.89;74.42
76611;BME280;65503;48.534;9.062;2023-02-04T03:31:44;98346.88;;;8.94;74.19
76611;BME280;65503;48.534;9.062;2023-02-04T03:34:10;98353.16;;;8.93;74.06
76611;BME280;65503;48.534;9.062;2023-02-04T03:36:37;98347.91;;;8.79;74.39
76611;BME280;65503;48.534;9.062;2023-02-04T03:39:03;98345.13;;;8.80;74.98
76611;BME280;65503;48.534;9.062;2023-02-04T03:41:30;98353.25;;;8.85;74.61
76611;BME280;65503;48.534;9.062;2023-02-04T03:43:56;98360.13;;;8.86;74.13
76611;BME280;65503;48.534;9.062;2023-02-04T03:46:23;98363.22;;;8.75;74.41
76611;BME280;65503;48.534;9.062;2023-02-04T03:48:51;98364.66;;;8.78;74.75
76611;BME280;65503;48.534;9.062;2023-02-04T03:51:17;98357.84;;;8.83;74.46
76611;BME280;65503;48.534;9.062;2023-02-04T03:53:44;98365.72;;;8.83;74.42
76611;BME280;65503;48.534;9.062;2023-02-04T03:56:10;98369.38;;;8.82;74.31
76611;BME280;65503;48.534;9.062;2023-02-04T03:58:36;98368.22;;;8.70;74.58
76611;BME280;65503;48.534;9.062;2023-02-04T04:01:03;98371.66;;;8.70;74.79
76611;BME280;65503;48.534;9.062;2023-02-04T04:03:29;98370.84;;;8.70;74.55
76611;BME280;65503;48.534;9.062;2023-02-04T04:05:56;98381.84;;;8.80;74.51
76611;BME280;65503;48.534;9.062;2023-02-04T04:08:22;98382.59;;;8.74;74.67
76611;BME280;65503;48.534;9.062;2023-02-04T04:10:50;98383.31;;;8.68;75.01
76611;BME280;65503;48.534;9.062;2023-02-04T04:13:16;98386.94;;;8.82;74.19
76611;BME280;65503;48.534;9.062;2023-02-04T04:15:43;98389.09;;;8.78;74.45
76611;BME280;65503;48.534;9.062;2023-02-04T04:18:09;98395.97;;;8.79;74.47
76611;BME280;65503;48.534;9.062;2023-02-04T04:20:36;98392.88;;;8.90;73.47
76611;BME280;65503;48.534;9.062;2023-02-04T04:23:02;98398.31;;;8.89;74.08
76611;BME280;65503;48.534;9.062;2023-02-04T04:25:28;98399.25;;;8.81;74.11
76611;BME280;65503;48.534;9.062;2023-02-04T04:27:55;98399.16;;;8.75;74.32
76611;BME280;65503;48.534;9.062;2023-02-04T04:30:22;98404.75;;;8.71;74.31
76611;BME280;65503;48.534;9.062;2023-02-04T04:32:48;98408.41;;;8.70;74.15
76611;BME280;65503;48.534;9.062;2023-02-04T04:35:14;98417.81;;;8.65;74.33
76611;BME280;65503;48.534;9.062;2023-02-04T04:37:41;98413.16;;;8.67;74.42
76611;BME280;65503;48.534;9.062;2023-02-04T04:40:12;98408.66;;;8.61;74.26
76611;BME280;65503;48.534;9.062;2023-02-04T04:42:38;98422.03;;;8.51;74.78
76611;BME280;65503;48.534;9.062;2023-02-04T04:45:07;98415.00;;;8.52;74.91
76611;BME280;65503;48.534;9.062;2023-02-04T04:47:33;98418.97;;;8.48;74.64
76611;BME280;65503;48.534;9.062;2023-02-04T04:50:00;98414.06;;;8.45;74.86
76611;BME280;65503;48.534;9.062;2023-02-04T04:52:26;98414.06;;;8.45;74.24
76611;BME280;65503;48.534;9.062;2023-02-04T04:54:53;98409.19;;;8.42;74.61
76611;BME280;65503;48.534;9.062;2023-02-04T04:57:20;98413.81;;;8.40;74.36
76611;BME280;65503;48.534;9.062;2023-02-04T04:59:46;98416.09;;;8.43;74.39
76611;BME280;65503;48.534;9.062;2023-02-04T05:02:13;98414.69;;;8.32;74.90
76611;BME280;65503;48.534;9.062;2023-02-04T05:04:39;98415.47;;;8.18;74.63
76611;BME280;65503;48.534;9.062;2023-02-04T05:07:06;98421.03;;;8.15;74.93
76611;BME280;65503;48.534;9.062;2023-02-04T05:09:32;98412.38;;;8.14;74.60
76611;BME280;65503;48.534;9.062;2023-02-04T05:11:59;98413.66;;;8.18;74.80
76611;BME280;65503;48.534;9.062;2023-02-04T05:14:25;98410.09;;;8.11;75.01
76611;BME280;65503;48.534;9.062;2023-02-04T05:16:52;98415.06;;;8.06;74.77
76611;BME280;65503;48.534;9.062;2023-02-04T05:19:18;98406.22;;;8.07;74.52
76611;BME280;65503;48.534;9.062;2023-02-04T05:21:45;98411.47;;;8.07;74.99
76611;BME280;65503;48.534;9.062;2023-02-04T05:24:11;98416.34;;;8.10;74.70
76611;BME280;65503;48.534;9.062;2023-02-04T05:26:38;98417.16;;;8.11;74.62
76611;BME280;65503;48.534;9.062;2023-02-04T05:29:04;98424.47;;;8.15;74.24
76611;BME280;65503;48.534;9.062;2023-02-04T05:31:31;98420.88;;;8.16;74.54
76611;BME280;65503;48.534;9.062;2023-02-04T05:33:58;98424.97;;;8.19;73.85
76611;BME280;65503;48.534;9.062;2023-02-04T05:36:24;98426.00;;;8.10;74.47
76611;BME280;65503;48.534;9.062;2023-02-04T05:38:51;98422.88;;;8.14;74.02
76611;BME280;65503;48.534;9.062;2023-02-04T05:41:17;98424.47;;;8.15;74.23
76611;BME280;65503;48.534;9.062;2023-02-04T05:43:44;98434.97;;;8.15;74.19
76611;BME280;65503;48.534;9.062;2023-02-04T05:46:10;98434.16;;;8.15;74.04
76611;BME280;65503;48.534;9.062;2023-02-04T05:48:37;98438.59;;;8.14;73.82
76611;BME280;65503;48.534;9.062;2023-02-04T05:51:05;98445.66;;;8.14;73.52
76611;BME280;65503;48.534;9.062;2023-02-04T05:53:31;98455.31;;;8.13;73.83
76611;BME280;65503;48.534;9.062;2023-02-04T05:55:58;98445.81;;;8.12;73.71
76611;BME280;65503;48.534;9.062;2023-02-04T05:58:25;98448.88;;;8.01;74.28
76611;BME280;65503;48.534;9.062;2023-02-04T06:00:59;98452.47;;;8.00;74.17
76611;BME280;65503;48.534;9.062;2023-02-04T06:03:29;98445.50;;;7.70;75.42
76611;BME280;65503;48.534;9.062;2023-02-04T06:05:56;98444.25;;;7.80;75.34
76611;BME280;65503;48.534;9.062;2023-02-04T06:08:23;98443.63;;;7.78;74.92
76611;BME280;65503;48.534;9.062;2023-02-04T06:10:49;98456.16;;;7.91;74.75
76611;BME280;65503;48.534;9.062;2023-02-04T06:13:16;98454.16;;;7.93;74.48
76611;BME280;65503;48.534;9.062;2023-02-04T06:15:42;98465.31;;;7.95;74.45
76611;BME280;65503;48.534;9.062;2023-02-04T06:18:09;98465.00;;;7.90;74.97
76611;BME280;65503;48.534;9.062;2023-02-04T06:20:35;98468.78;;;7.65;75.41
76611;BME280;65503;48.534;9.062;2023-02-04T06:23:02;98463.22;;;7.68;75.62
76611;BME280;65503;48.534;9.062;2023-02-04T06:25:28;98474.25;;;7.78;75.16
76611;BME280;65503;48.534;9.062;2023-02-04T06:27:55;98475.53;;;7.82;74.81
76611;BME280;65503;48.534;9.062;2023-02-04T06:30:21;98494.81;;;7.89;74.83
76611;BME280;65503;48.534;9.062;2023-02-04T06:32:48;98499.06;;;7.90;74.15
76611;BME280;65503;48.534;9.062;2023-02-04T06:35:14;98497.78;;;7.86;74.47
76611;BME280;65503;48.534;9.062;2023-02-04T06:37:42;98484.50;;;7.87;74.41
76611;BME280;65503;48.534;9.062;2023-02-04T06:40:09;98498.72;;;7.93;74.20
76611;BME280;65503;48.534;9.062;2023-02-04T06:42:36;98497.72;;;7.94;74.26
76611;BME280;65503;48.534;9.062;2023-02-04T06:45:03;98504.50;;;7.88;74.37
76611;BME280;65503;48.534;9.062;2023-02-04T06:47:30;98508.84;;;7.73;75.05
76611;BME280;65503;48.534;9.062;2023-02-04T06:49:56;98512.22;;;7.82;75.02
76611;BME280;65503;48.534;9.062;2023-02-04T06:52:23;98505.97;;;7.91;74.84
76611;BME280;65503;48.534;9.062;2023-02-04T06:54:49;98511.50;;;7.96;74.18
76611;BME280;65503;48.534;9.062;2023-02-04T06:57:16;98517.13;;;7.85;75.04
76611;BME280;65503;48.534;9.062;2023-02-04T06:59:42;98519.47;;;7.80;74.96
76611;BME280;65503;48.534;9.062;2023-02-04T07:02:10;98515.94;;;7.65;75.13
76611;BME280;65503;48.534;9.062;2023-02-04T07:04:37;98528.03;;;7.66;75.31
76611;BME280;65503;48.534;9.062;2023-02-04T07:07:04;98530.09;;;7.78;75.29
76611;BME280;65503;48.534;9.062;2023-02-04T07:09:30;98530.94;;;7.79;75.09
76611;BME280;65503;48.534;9.062;2023-02-04T07:11:57;98543.34;;;7.85;74.55
76611;BME280;65503;48.534;9.062;2023-02-04T07:14:23;98534.00;;;7.82;74.41
76611;BME280;65503;48.534;9.062;2023-02-04T07:16:50;98532.84;;;7.85;74.59
76611;BME280;65503;48.534;9.062;2023-02-04T07:19:16;98537.41;;;7.91;74.56
76611;BME280;65503;48.534;9.062;2023-02-04T07:21:46;98549.50;;;7.92;74.35
76611;BME280;65503;48.534;9.062;2023-02-04T07:24:12;98547.19;;;7.97;74.28
76611;BME280;65503;48.534;9.062;2023-02-04T07:26:38;98549.16;;;7.95;74.12
76611;BME280;65503;48.534;9.062;2023-02-04T07:29:05;98552.25;;;7.99;73.89
76611;BME280;65503;48.534;9.062;2023-02-04T07:31:39;98553.34;;;8.04;74.03
76611;BME280;65503;48.534;9.062;2023-02-04T07:34:06;98559.00;;;7.93;73.87
76611;BME280;65503;48.534;9.062;2023-02-04T07:36:32;98558.09;;;7.78;74.61
76611;BME280;65503;48.534;9.062;2023-02-04T07:38:59;98553.13;;;7.91;74.32
76611;BME280;65503;48.534;9.062;2023-02-04T07:41:25;98554.03;;;7.98;74.06
76611;BME280;65503;48.534;9.062;2023-02-04T07:43:52;98557.44;;;8.07;73.97
76611;BME280;65503;48.534;9.062;2023-02-04T07:46:18;98559.22;;;8.14;73.61
76611;BME280;65503;48.534;9.062;2023-02-04T07:48:45;98561.75;;;8.22;73.77
76611;BME280;65503;48.534;9.062;2023-02-04T07:51:11;98565.72;;;8.18;73.53
76611;BME280;65503;48.534;9.062;2023-02-04T07:53:38;98570.06;;;8.03;74.13
76611;BME280;65503;48.534;9.062;2023-02-04T07:56:04;98572.00;;;8.09;73.75
76611;BME280;65503;48.534;9.062;2023-02-04T07:58:31;98567.06;;;8.14;73.81
76611;BME280;65503;48.534;9.062;2023-02-04T08:00:58;98578.53;;;8.13;73.26
76611;BME280;65503;48.534;9.062;2023-02-04T08:03:24;98589.31;;;8.18;73.21
76611;BME280;65503;48.534;9.062;2023-02-04T08:05:50;98590.66;;;8.14;73.68
76611;BME280;65503;48.534;9.062;2023-02-04T08:08:17;98585.53;;;8.21;73.61
76611;BME280;65503;48.534;9.062;2023-02-04T08:10:44;98585.66;;;8.27;73.29
76611;BME280;65503;48.534;9.062;2023-02-04T08:13:10;98591.50;;;8.38;73.40
76611;BME280;65503;48.534;9.062;2023-02-04T08:15:37;98600.97;;;8.47;73.31
76611;BME280;65503;48.534;9.062;2023-02-04T08:18:04;98592.31;;;8.61;72.80
76611;BME280;65503;48.534;9.062;2023-02-04T08:20:30;98588.69;;;8.62;72.26
76611;BME280;65503;48.534;9.062;2023-02-04T08:22:57;98585.19;;;8.69;72.40
76611;BME280;65503;48.534;9.062;2023-02-04T08:25:24;98590.91;;;8.73;72.12
76611;BME280;65503;48.534;9.062;2023-02-04T08:27:51;98592.75;;;8.87;72.06
76611;BME280;65503;48.534;9.062;2023-02-04T08:30:17;98591.78;;;9.03;71.75
76611;BME280;65503;48.534;9.062;2023-02-04T08:32:44;98600.13;;;9.21;71.47
76611;BME280;65503;48.534;9.062;2023-02-04T08:35:11;98616.34;;;9.25;71.21
76611;BME280;65503;48.534;9.062;2023-02-04T08:37:38;98611.00;;;9.33;70.77
76611;BME280;65503;48.534;9.062;2023-02-04T08:40:05;98612.53;;;9.42;70.31
76611;BME280;65503;48.534;9.062;2023-02-04T08:42:31;98614.09;;;9.51;70.27
76611;BME280;65503;48.534;9.062;2023-02-04T08:44:58;98621.34;;;9.49;69.51
76611;BME280;65503;48.534;9.062;2023-02-04T08:47:24;98617.59;;;9.58;69.56
76611;BME280;65503;48.534;9.062;2023-02-04T08:49:51;98614.97;;;9.58;66.61
76611;BME280;65503;48.534;9.062;2023-02-04T08:52:18;98615.63;;;9.60;67.14
76611;BME280;65503;48.534;9.062;2023-02-04T08:54:44;98622.69;;;9.45;66.53
76611;BME280;65503;48.534;9.062;2023-02-04T08:57:11;98634.81;;;9.46;67.51
76611;BME280;65503;48.534;9.062;2023-02-04T08:59:37;98631.56;;;9.44;67.20
76611;BME280;65503;48.534;9.062;2023-02-04T09:02:04;98637.38;;;9.54;67.59
76611;BME280;65503;48.534;9.062;2023-02-04T09:04:31;98630.94;;;9.57;66.84
76611;BME280;65503;48.534;9.062;2023-02-04T09:06:57;98632.38;;;9.59;67.11
76611;BME280;65503;48.534;9.062;2023-02-04T09:09:24;98630.94;;;9.71;66.56
76611;BME280;65503;48.534;9.062;2023-02-04T09:11:51;98637.97;;;9.85;65.31
76611;BME280;65503;48.534;9.062;2023-02-04T09:14:18;98649.84;;;9.81;65.38
76611;BME280;65503;48.534;9.062;2023-02-04T09:16:44;98643.88;;;9.87;65.16
76611;BME280;65503;48.534;9.062;2023-02-04T09:19:11;98652.94;;;10.00;65.10
76611;BME280;65503;48.534;9.062;2023-02-04T09:21:41;98647.66;;;10.00;64.98
76611;BME280;65503;48.534;9.062;2023-02-04T09:24:07;98651.94;;;10.01;64.95
76611;BME280;65503;48.534;9.062;2023-02-04T09:26:34;98648.78;;;9.90;64.06
76611;BME280;65503;48.534;9.062;2023-02-04T09:29:00;98652.53;;;10.03;64.23
76611;BME280;65503;48.534;9.062;2023-02-04T09:31:27;98657.25;;;10.22;63.07
76611;BME280;65503;48.534;9.062;2023-02-04T09:33:53;98657.78;;;10.32;63.34
76611;BME280;65503;48.534;9.062;2023-02-04T09:36:20;98663.69;;;10.55;62.46
76611;BME280;65503;48.534;9.062;2023-02-04T09:38:46;98666.09;;;10.93;61.22
76611;BME280;65503;48.534;9.062;2023-02-04T09:41:13;98666.78;;;11.29;60.41
76611;BME280;65503;48.534;9.062;2023-02-04T09:43:43;98669.47;;;11.70;60.47
76611;BME280;65503;48.534;9.062;2023-02-04T09:46:21;98680.88;;;12.79;54.80
76611;BME280;65503;48.534;9.062;2023-02-04T09:48:49;98678.63;;;12.76;55.75
76611;BME280;65503;48.534;9.062;2023-02-04T09:51:19;98682.84;;;12.51;52.63
76611;BME280;65503;48.534;9.062;2023-02-04T09:53:47;98688.91;;;11.97;54.59
76611;BME280;65503;48.534;9.062;2023-02-04T09:56:15;98698.75;;;11.47;55.70
76611;BME280;65503;48.534;9.062;2023-02-04T09:58:42;98698.97;;;11.52;56.73
76611;BME280;65503;48.534;9.062;2023-02-04T10:01:19;98697.34;;;11.51;57.81
76611;BME280;65503;48.534;9.062;2023-02-04T10:03:47;98697.34;;;11.51;58.34
76611;BME280;65503;48.534;9.062;2023-02-04T10:06:18;98702.66;;;11.58;58.77
76611;BME280;65503;48.534;9.062;2023-02-04T10:08:46;98703.53;;;11.65;58.85
76611;BME280;65503;48.534;9.062;2023-02-04T10:11:15;98682.84;;;11.69;57.33
76611;BME280;65503;48.534;9.062;2023-02-04T10:13:53;98698.94;;;11.74;55.14
76611;BME280;65503;48.534;9.062;2023-02-04T10:16:39;98700.31;;;11.70;57.82
76611;BME280;65503;48.534;9.062;2023-02-04T10:19:12;98688.53;;;12.00;55.40
76611;BME280;65503;48.534;9.062;2023-02-04T10:21:42;98690.44;;;12.19;55.74
76611;BME280;65503;48.534;9.062;2023-02-04T10:24:20;98692.25;;;12.73;52.04
76611;BME280;65503;48.534;9.062;2023-02-04T10:26:51;98687.13;;;12.65;52.86
76611;BME280;65503;48.534;9.062;2023-02-04T10:29:20;98691.69;;;12.97;52.60
76611;BME280;65503;48.534;9.062;2023-02-04T10:31:50;98693.09;;;12.87;50.17
76611;BME280;65503;48.534;9.062;2023-02-04T10:34:32;98690.44;;;12.93;50.23
76611;BME280;65503;48.534;9.062;2023-02-04T10:37:20;98684.13;;;12.81;46.61
76611;BME280;65503;48.534;9.062;2023-02-04T10:39:47;98680.59;;;11.93;48.31
76611;BME280;65503;48.534;9.062;2023-02-04T10:42:22;98679.31;;;11.83;50.66
76611;BME280;65503;48.534;9.062;2023-02-04T10:44:49;98686.56;;;11.74;50.51
76611;BME280;65503;48.534;9.062;2023-02-04T10:47:19;98673.69;;;11.65;52.41
76611;BME280;65503;48.534;9.062;2023-02-04T10:50:00;98672.66;;;12.48;52.78
76611;BME280;65503;48.534;9.062;2023-02-04T10:52:35;98672.34;;;13.69;48.82
76611;BME280;65503;48.534;9.062;2023-02-04T10:55:04;98665.25;;;14.21;46.06
76611;BME280;65503;48.534;9.062;2023-02-04T10:57:34;98667.66;;;14.29;44.54
76611;BME280;65503;48.534;9.062;2023-02-04T11:00:05;98666.22;;;13.75;46.87
76611;BME280;65503;48.534;9.062;2023-02-04T11:05:17;98669.50;;;13.11;43.93
76611;BME280;65503;48.534;9.062;2023-02-04T11:07:45;98667.88;;;12.91;46.23
76611;BME280;65503;48.534;9.062;2023-02-04T11:10:23;98670.94;;;12.81;49.48
76611;BME280;65503;48.534;9.062;2023-02-04T11:15:48;98675.66;;;12.31;47.49
76611;BME280;65503;48.534;9.062;2023-02-04T11:20:51;98681.50;;;12.20;48.07
76611;BME280;65503;48.534;9.062;2023-02-04T11:26:14;98674.72;;;11.64;47.32
76611;BME280;65503;48.534;9.062;2023-02-04T11:31:29;98678.72;;;11.25;49.37
76611;BME280;65503;48.534;9.062;2023-02-04T11:37:14;98671.75;;;11.45;50.19
76611;BME280;65503;48.534;9.062;2023-02-04T11:39:43;98673.44;;;11.53;50.46
76611;BME280;65503;48.534;9.062;2023-02-04T11:44:48;98669.44;;;12.52;48.21
76611;BME280;65503;48.534;9.062;2023-02-04T11:47:15;98676.06;;;13.15;46.98
76611;BME280;65503;48.534;9.062;2023-02-04T11:49:42;98666.59;;;13.85;46.80
76611;BME280;65503;48.534;9.062;2023-02-04T11:52:13;98674.97;;;14.33;44.97
76611;BME280;65503;48.534;9.062;2023-02-04T11:54:39;98672.53;;;14.32;45.04
76611;BME280;65503;48.534;9.062;2023-02-04T11:57:10;98667.41;;;13.79;43.64
76611;BME280;65503;48.534;9.062;2023-02-04T11:59:36;98673.59;;;13.07;45.55
76611;BME280;65503;48.534;9.062;2023-02-04T12:02:17;98662.97;;;12.68;48.23
76611;BME280;65503;48.534;9.062;2023-02-04T12:05:14;98674.72;;;12.46;47.98
76611;BME280;65503;48.534;9.062;2023-02-04T12:07:38;98671.75;;;12.14;49.86
76611;BME280;65503;48.534;9.062;2023-02-04T12:12:49;98672.88;;;11.92;49.45
76611;BME280;65503;48.534;9.062;2023-02-04T12:15:34;98674.19;;;12.16;50.27
76611;BME280;65503;48.534;9.062;2023-02-04T12:18:06;98674.22;;;12.22;48.59
76611;BME280;65503;48.534;9.062;2023-02-04T12:20:34;98675.50;;;12.39;48.63
76611;BME280;65503;48.534;9.062;2023-02-04T12:23:01;98677.94;;;12.41;48.13
76611;BME280;65503;48.534;9.062;2023-02-04T12:25:28;98681.25;;;12.63;49.05
76611;BME280;65503;48.534;9.062;2023-02-04T12:27:55;98682.09;;;12.83;47.27
76611;BME280;65503;48.534;9.062;2023-02-04T12:30:24;98682.13;;;12.96;47.71
76611;BME280;65503;48.534;9.062;2023-02-04T12:32:51;98684.38;;;13.12;47.60
76611;BME280;65503;48.534;9.062;2023-02-04T12:35:18;98676.03;;;13.29;47.18
76611;BME280;65503;48.534;9.062;2023-02-04T12:37:45;98680.13;;;13.24;45.52
76611;BME280;65503;48.534;9.062;2023-02-04T12:40:17;98683.78;;;13.37;46.05
76611;BME280;65503;48.534;9.062;2023-02-04T12:42:44;98686.22;;;13.32;44.29
76611;BME280;65503;48.534;9.062;2023-02-04T12:45:13;98679.28;;;12.91;45.20
76611;BME280;65503;48.534;9.062;2023-02-04T12:47:41;98684.94;;;12.88;44.96
76611;BME280;65503;48.534;9.062;2023-02-04T12:50:09;98680.91;;;12.92;45.54
76611;BME280;65503;48.534;9.062;2023-02-04T12:52:37;98696.75;;;12.92;46.28
76611;BME280;65503;48.534;9.062;2023-02-04T12:55:06;98693.53;;;13.30;46.52
76611;BME280;65503;48.534;9.062;2023-02-04T12:57:34;98687.59;;;13.74;44.04
76611;BME280;65503;48.534;9.062;2023-02-04T13:00:00;98687.97;;;12.11;45.05
76611;BME280;65503;48.534;9.062;2023-02-04T13:02:27;98684.28;;;11.99;46.91
76611;BME280;65503;48.534;9.062;2023-02-04T13:04:54;98678.22;;;12.05;48.90
76611;BME280;65503;48.534;9.062;2023-02-04T13:07:22;98677.63;;;12.10;48.66
76611;BME280;65503;48.534;9.062;2023-02-04T13:09:48;98690.25;;;11.80;48.96
76611;BME280;65503;48.534;9.062;2023-02-04T13:12:15;98693.34;;;11.55;47.77
76611;BME280;65503;48.534;9.062;2023-02-04T13:14:42;98691.88;;;11.25;48.73
76611;BME280;65503;48.534;9.062;2023-02-04T13:17:09;98696.19;;;11.05;49.19
76611;BME280;65503;48.534;9.062;2023-02-04T13:19:36;98697.38;;;10.81;50.56
76611;BME280;65503;48.534;9.062;2023-02-04T13:22:02;98693.78;;;10.89;50.70
76611;BME280;65503;48.534;9.062;2023-02-04T13:24:29;98691.03;;;10.97;49.52
76611;BME280;65503;48.534;9.062;2023-02-04T13:26:55;98694.66;;;11.17;49.99
76611;BME280;65503;48.534;9.062;2023-02-04T13:29:22;98694.28;;;11.20;49.33
76611;BME280;65503;48.534;9.062;2023-02-04T13:31:49;98691.06;;;11.25;49.70
76611;BME280;65503;48.534;9.062;2023-02-04T13:34:16;98691.50;;;11.28;49.67